Felker Army Air Field
KFAF : now visible

Airfield :











YOU CAN JOIN US ON...

 
LOGIN :

Register | Disclaimer

   EN    FR    IT 

 









Legend :    VFR   Marginal VFR   IFR   Intensive IFR   Very Intensive IFR
Visi :
Ceiling :
>= 8 km
>= 3000ft
5 to 8 km
1000 to 3000 ft
1500m to 5 km
500 to 1000 ft
800 to 1500m
200 to 500 ft
< 800m
< 200 ft
Symbols :   Thunderstorms  Fog  Heavy snow  Heavy precipitations  Wind > 20 kt






- Airport Elevation : 12 ft


KFAF - Felker Army Air Field

CURRENT METAR :
  • 280806Z AUTO 22004KT 5SM BR OVC004 16/15 A3011 RMK AO2 SLPNO $

EXPIRED METARs :
  • 280756Z AUTO 22005KT 7SM OVC005 17/15 A3011 RMK AO2 SLPNO T01650154 $
  • 280746Z AUTO 22004KT 10SM OVC005 17/16 A3011 RMK AO2 SLPNO $
  • 280726Z AUTO 20005KT 10SM OVC006 17/16 A3012 RMK AO2 SLPNO $
  • 280706Z AUTO 21005KT 10SM OVC007 17/16 A3012 RMK AO2 SLPNO $
  • 280656Z AUTO 19006KT 10SM OVC008 17/16 A3011 RMK AO2 SLPNO T01730156 $
  • 280556Z AUTO 20005KT 10SM OVC010 18/16 A3013 RMK AO2 SLPNO T01760156 10178 20171 58006 $

TAF AMD TAF KFAF
Valid from the 27 at 22:00 until the 29 at 00:00 UTC


272250Z 2722/2824 VRB06KT 8000 BR OVC012 QNH3013INS
BECMG 2802/2803 VRB06KT 6000 BR OVC006 QNH3010INS
TEMPO 2808/2814 2400 BR
BECMG 2813/2814 23012KT 9999 NSW FEW006 SCT040 QNH3003INS
BECMG 2817/2818 23010G15KT 9999 SCT020 BKN050 QNH2999INS TX17/2722Z TN16/2810Z LAST NO AMDS AFT 2803 NEXT 2810
KZDC FIR / North America



MET'MAP, your aeronautical weather chart ! - Copyright ORBIFLY December 2007 - Disclaimer

ORBIFLY MET'MAP TEAM :

Programming & Development : Alexandra Zaïnal
Concept & original design : Baudouin d'Aumeries
Assistance for programming : Marc-Olivier Méhu
Technical & hardware support : Manuel Goepfert

Contact : metmap@orbifly.com




SOURCES & CREDITS :

   NOAA       Earth
Advisory